Snav Lazio — IBUH — position and weather

sailwx.info

Track history (hours):
 
Tides and Currents Weather Stations Pressure Air Temp Water Temp Dewpoint Dewpoint Depression Visibility Wind Speed Wind Dir Waves Ship Positions

Snav Lazio

Last reported at 2015-May-30 04:14 UTC. Time now 2015-May-30 16:39 UTC.
Position N 40°50' E 014°16'.

Length 162 m; draft 6 m.

Type: Passenger vessel. MMSI: 247163100.

Date/timePositionNaut miles runAvg speedWind from/ knotsBaromVisibWave heightAir tempDewpointWater temp
2015-May-30 04:14N 40°50' E 014°16'711.0
2015-May-30 03:33N 40°43' E 014°14'1818.4
2015-May-30 02:33N 40°26' E 014°05'1818.1
2015-May-30 01:33N 40°08' E 014°00'1817.9
2015-May-30 00:32N 39°51' E 013°55'1818.2
2015-May-29 23:33N 39°33' E 013°49'1717.5
2015-May-29 22:33N 39°16' E 013°45'3617.8
2015-May-29 20:30N 38°40' E 013°36'1616.9
2015-May-29 19:33N 38°25' E 013°31'1716.7
2015-May-29 18:33N 38°09' E 013°25'3 2.8
2015-May-29 17:33N 38°08' E 013°22'0 0.0
2015-May-29 16:33N 38°08' E 013°22'0 0.0
2015-May-29 15:33N 38°08' E 013°22'0 0.0
2015-May-29 14:33N 38°08' E 013°22'0 0.0
2015-May-29 13:33N 38°08' E 013°22'0 0.0
2015-May-29 12:33N 38°08' E 013°22'0 0.0
2015-May-29 11:33N 38°08' E 013°22'0 0.0
2015-May-29 10:33N 38°08' E 013°22'0 0.0
2015-May-29 09:33N 38°08' E 013°22'0 0.0
2015-May-29 08:33N 38°08' E 013°22'0 0.0
2015-May-29 07:33N 38°08' E 013°22'0 0.0
2015-May-29 06:33N 38°08' E 013°22'0 0.0
2015-May-29 05:33N 38°08' E 013°22'3 3.1
2015-May-29 04:33N 38°10' E 013°25'1716.6
2015-May-29 03:33N 38°26' E 013°30'13916.8
2015-May-28 19:17N 40°41' E 014°12'10 0.7
2015-May-28 04:14N 40°50' E 014°16'4 5.8
2015-May-28 03:33N 40°46' E 014°16'1818.1
2015-May-28 02:34N 40°30' E 014°06'11718.2
2015-May-27 20:09N 38°36' E 013°34'1117.8
2015-May-27 19:34N 38°26' E 013°31'1817.7
2015-May-27 18:34N 38°08' E 013°25'3 2.8
2015-May-27 17:32N 38°08' E 013°22'0 0.0
2015-May-27 16:32N 38°08' E 013°22'0 0.0
2015-May-27 15:32N 38°08' E 013°22'0 0.0
2015-May-27 14:32N 38°08' E 013°22'0 0.0
2015-May-27 13:32N 38°08' E 013°22'0 0.0
2015-May-27 12:34N 38°08' E 013°22'0 0.0
2015-May-27 11:33N 38°08' E 013°22'0 0.0
2015-May-27 10:34N 38°08' E 013°22'0 0.0
2015-May-27 09:33N 38°08' E 013°22'0 0.0
2015-May-27 08:34N 38°08' E 013°22'0 0.0
2015-May-27 07:34N 38°08' E 013°22'0 0.0
2015-May-27 06:34N 38°08' E 013°22'0 0.0
2015-May-27 05:34N 38°08' E 013°22'0 0.0
2015-May-27 04:34N 38°08' E 013°22'6 5.7
2015-May-27 03:33N 38°13' E 013°26'1817.8
2015-May-27 02:33N 38°30' E 013°31'2118.3
2015-May-27 01:26N 38°50' E 013°37'9018.5
2015-May-26 20:33N 40°18' E 014°03'1716.9
2015-May-26 19:33N 40°35' E 014°08'1616.2
2015-May-26 18:33N 40°49' E 014°17'1 1.1
2015-May-26 17:22N 40°50' E 014°16'0 0.0
2015-May-26 14:24N 40°50' E 014°16'0 0.0
2015-May-26 04:15N 40°50' E 014°16'0 0.2
2015-May-26 03:27N 40°50' E 014°16'1213.7
2015-May-26 02:33N 40°39' E 014°10'1918.6
2015-May-26 01:33N 40°21' E 014°04'11318.9
2015-May-25 19:33N 38°31' E 013°29'1918.7
2015-May-25 18:33N 38°12' E 013°26'6 5.5
2015-May-25 17:32N 38°08' E 013°22'0 0.0
2015-May-25 16:32N 38°08' E 013°22'0 0.0
2015-May-25 15:32N 38°08' E 013°22'0 0.0
2015-May-25 14:32N 38°08' E 013°22'0 0.0
2015-May-25 13:32N 38°08' E 013°22'0 0.0
2015-May-25 12:32N 38°08' E 013°22'0 0.0
2015-May-25 11:32N 38°08' E 013°22'0 0.0
2015-May-25 10:32N 38°08' E 013°22'0 0.0
2015-May-25 09:32N 38°08' E 013°22'0 0.0
2015-May-25 08:32N 38°08' E 013°22'0 0.0
2015-May-25 07:32N 38°08' E 013°22'0 0.0
2015-May-25 06:32N 38°08' E 013°22'0 0.0
2015-May-25 05:32N 38°08' E 013°22'0 0.0
2015-May-25 04:32N 38°08' E 013°22'5 5.4
2015-May-25 03:33N 38°12' E 013°25'1615.8
2015-May-25 02:33N 38°28' E 013°31'1817.7
2015-May-25 01:32N 38°45' E 013°36'9017.9
2015-May-24 20:30N 40°13' E 014°01'1819.0
2015-May-24 19:33N 40°31' E 014°06'1918.7
2015-May-24 18:33N 40°48' E 014°16'2 0.2
2015-May-24 03:33N 40°46' E 014°15'1818.5
2015-May-24 02:33N 40°29' E 014°06'11518.4
2015-May-23 20:18N 38°36' E 013°34'1317.2
2015-May-23 19:34N 38°24' E 013°30'1716.6
2015-May-23 18:34N 38°08' E 013°24'2 1.7
2015-May-23 17:29N 38°08' E 013°22'0 0.0
2015-May-23 16:32N 38°08' E 013°22'0 0.0
2015-May-23 15:32N 38°08' E 013°22'0 0.0
2015-May-23 14:32N 38°08' E 013°22'0 0.0
2015-May-23 13:32N 38°08' E 013°22'0 0.0
2015-May-23 12:33N 38°08' E 013°22'0 0.0
2015-May-23 11:33N 38°08' E 013°22'0 0.0
2015-May-23 10:33N 38°08' E 013°22'0 0.0
2015-May-23 09:33N 38°08' E 013°22'0 0.0
2015-May-23 08:33N 38°08' E 013°22'0 0.0
2015-May-23 07:33N 38°08' E 013°22'0 0.0
2015-May-23 06:33N 38°08' E 013°22'0 0.0
2015-May-23 05:33N 38°08' E 013°22'0 0.0
2015-May-23 04:33N 38°08' E 013°22'7 7.3
2015-May-23 03:34N 38°14' E 013°26'1818.2
2015-May-23 02:34N 38°32' E 013°32'1918.3
2015-May-23 01:31N 38°51' E 013°37'123 5.8
2015-May-22 04:25N 40°50' E 014°16'3 3.7
2015-May-22 03:33N 40°47' E 014°16'1818.0
2015-May-22 02:34N 40°31' E 014°07'1817.5
2015-May-22 01:32N 40°14' E 014°02'9817.9
2015-May-21 20:04N 38°38' E 013°33'918.2
2015-May-21 19:33N 38°29' E 013°29'1818.0
2015-May-21 18:34N 38°12' E 013°26'5 4.8
2015-May-21 17:31N 38°08' E 013°22'0 0.0
2015-May-21 16:31N 38°08' E 013°22'0 0.0
2015-May-21 15:16N 38°08' E 013°22'0 0.0
2015-May-21 14:31N 38°08' E 013°22'0 0.0
2015-May-21 13:31N 38°08' E 013°22'0 0.0
2015-May-21 12:31N 38°08' E 013°22'0 0.0
2015-May-21 11:33N 38°08' E 013°22'0 0.0
2015-May-21 10:33N 38°08' E 013°22'0 0.0
2015-May-21 09:33N 38°08' E 013°22'0 0.0
2015-May-21 08:33N 38°08' E 013°22'0 0.0
2015-May-21 07:33N 38°08' E 013°22'0 0.0
2015-May-21 06:33N 38°08' E 013°22'0 0.0
2015-May-21 05:33N 38°08' E 013°22'0 0.0
2015-May-21 04:33N 38°08' E 013°22'5 4.9
2015-May-21 03:33N 38°12' E 013°25'1716.6
2015-May-21 02:33N 38°28' E 013°31'1817.6
2015-May-21 01:34N 38°45' E 013°36'1817.7
2015-May-21 00:33N 39°03' E 013°40'1817.9
2015-May-20 23:33N 39°20' E 013°45'1818.2
2015-May-20 22:33N 39°38' E 013°51'1818.4
2015-May-20 21:33N 39°56' E 013°56'1919.0
2015-May-20 20:33N 40°14' E 014°02'1918.6
2015-May-20 19:33N 40°32' E 014°07'1717.4
2015-May-20 18:33N 40°48' E 014°16'2 1.8
2015-May-20 17:24N 40°50' E 014°16'0 0.0
2015-May-20 15:18N 40°50' E 014°16'0 0.0
2015-May-20 14:33N 40°50' E 014°16'0 0.0
2015-May-20 13:30N 40°50' E 014°16'0 0.0
2015-May-20 12:30N 40°50' E 014°16'0 0.0
2015-May-20 11:21N 40°50' E 014°16'0 0.0
2015-May-20 06:32N 40°50' E 014°16'0 0.0
2015-May-20 04:29N 40°50' E 014°16'  
Track history (hours):
 
Tides and Currents Weather Stations Pressure Air Temp Water Temp Dewpoint Dewpoint Depression Visibility Wind Speed Wind Dir Waves Ship Positions

Snav Lazio

Last reported at 2015-May-30 04:14 UTC. Time now 2015-May-30 16:39 UTC.
Position N 40°50' E 014°16'.

Length 162 m; draft 6 m.

Type: Passenger vessel. MMSI: 247163100.

Date/timePositionNaut miles runAvg speedWind from/ knotsBaromVisibWave heightAir tempDewpointWater temp
2015-May-30 04:14N 40°50' E 014°16'711.0
2015-May-30 03:33N 40°43' E 014°14'1818.4
2015-May-30 02:33N 40°26' E 014°05'1818.1
2015-May-30 01:33N 40°08' E 014°00'1817.9
2015-May-30 00:32N 39°51' E 013°55'1818.2
2015-May-29 23:33N 39°33' E 013°49'1717.5
2015-May-29 22:33N 39°16' E 013°45'3617.8
2015-May-29 20:30N 38°40' E 013°36'1616.9
2015-May-29 19:33N 38°25' E 013°31'1716.7
2015-May-29 18:33N 38°09' E 013°25'3 2.8
2015-May-29 17:33N 38°08' E 013°22'0 0.0
2015-May-29 16:33N 38°08' E 013°22'0 0.0
2015-May-29 15:33N 38°08' E 013°22'0 0.0
2015-May-29 14:33N 38°08' E 013°22'0 0.0
2015-May-29 13:33N 38°08' E 013°22'0 0.0
2015-May-29 12:33N 38°08' E 013°22'0 0.0
2015-May-29 11:33N 38°08' E 013°22'0 0.0
2015-May-29 10:33N 38°08' E 013°22'0 0.0
2015-May-29 09:33N 38°08' E 013°22'0 0.0
2015-May-29 08:33N 38°08' E 013°22'0 0.0
2015-May-29 07:33N 38°08' E 013°22'0 0.0
2015-May-29 06:33N 38°08' E 013°22'0 0.0
2015-May-29 05:33N 38°08' E 013°22'3 3.1
2015-May-29 04:33N 38°10' E 013°25'1716.6
2015-May-29 03:33N 38°26' E 013°30'13916.8
2015-May-28 19:17N 40°41' E 014°12'10 0.7
2015-May-28 04:14N 40°50' E 014°16'4 5.8
2015-May-28 03:33N 40°46' E 014°16'1818.1
2015-May-28 02:34N 40°30' E 014°06'11718.2
2015-May-27 20:09N 38°36' E 013°34'1117.8
2015-May-27 19:34N 38°26' E 013°31'1817.7
2015-May-27 18:34N 38°08' E 013°25'3 2.8
2015-May-27 17:32N 38°08' E 013°22'0 0.0
2015-May-27 16:32N 38°08' E 013°22'0 0.0
2015-May-27 15:32N 38°08' E 013°22'0 0.0
2015-May-27 14:32N 38°08' E 013°22'0 0.0
2015-May-27 13:32N 38°08' E 013°22'0 0.0
2015-May-27 12:34N 38°08' E 013°22'0 0.0
2015-May-27 11:33N 38°08' E 013°22'0 0.0
2015-May-27 10:34N 38°08' E 013°22'0 0.0
2015-May-27 09:33N 38°08' E 013°22'0 0.0
2015-May-27 08:34N 38°08' E 013°22'0 0.0
2015-May-27 07:34N 38°08' E 013°22'0 0.0
2015-May-27 06:34N 38°08' E 013°22'0 0.0
2015-May-27 05:34N 38°08' E 013°22'0 0.0
2015-May-27 04:34N 38°08' E 013°22'6 5.7
2015-May-27 03:33N 38°13' E 013°26'1817.8
2015-May-27 02:33N 38°30' E 013°31'2118.3
2015-May-27 01:26N 38°50' E 013°37'9018.5
2015-May-26 20:33N 40°18' E 014°03'1716.9
2015-May-26 19:33N 40°35' E 014°08'1616.2
2015-May-26 18:33N 40°49' E 014°17'1 1.1
2015-May-26 17:22N 40°50' E 014°16'0 0.0
2015-May-26 14:24N 40°50' E 014°16'0 0.0
2015-May-26 04:15N 40°50' E 014°16'0 0.2
2015-May-26 03:27N 40°50' E 014°16'1213.7
2015-May-26 02:33N 40°39' E 014°10'1918.6
2015-May-26 01:33N 40°21' E 014°04'11318.9
2015-May-25 19:33N 38°31' E 013°29'1918.7
2015-May-25 18:33N 38°12' E 013°26'6 5.5
2015-May-25 17:32N 38°08' E 013°22'0 0.0
2015-May-25 16:32N 38°08' E 013°22'0 0.0
2015-May-25 15:32N 38°08' E 013°22'0 0.0
2015-May-25 14:32N 38°08' E 013°22'0 0.0
2015-May-25 13:32N 38°08' E 013°22'0 0.0
2015-May-25 12:32N 38°08' E 013°22'0 0.0
2015-May-25 11:32N 38°08' E 013°22'0 0.0
2015-May-25 10:32N 38°08' E 013°22'0 0.0
2015-May-25 09:32N 38°08' E 013°22'0 0.0
2015-May-25 08:32N 38°08' E 013°22'0 0.0
2015-May-25 07:32N 38°08' E 013°22'0 0.0
2015-May-25 06:32N 38°08' E 013°22'0 0.0
2015-May-25 05:32N 38°08' E 013°22'0 0.0
2015-May-25 04:32N 38°08' E 013°22'5 5.4
2015-May-25 03:33N 38°12' E 013°25'1615.8
2015-May-25 02:33N 38°28' E 013°31'1817.7
2015-May-25 01:32N 38°45' E 013°36'9017.9
2015-May-24 20:30N 40°13' E 014°01'1819.0
2015-May-24 19:33N 40°31' E 014°06'1918.7
2015-May-24 18:33N 40°48' E 014°16'2 0.2
2015-May-24 03:33N 40°46' E 014°15'1818.5
2015-May-24 02:33N 40°29' E 014°06'11518.4
2015-May-23 20:18N 38°36' E 013°34'1317.2
2015-May-23 19:34N 38°24' E 013°30'1716.6
2015-May-23 18:34N 38°08' E 013°24'2 1.7
2015-May-23 17:29N 38°08' E 013°22'0 0.0
2015-May-23 16:32N 38°08' E 013°22'0 0.0
2015-May-23 15:32N 38°08' E 013°22'0 0.0
2015-May-23 14:32N 38°08' E 013°22'0 0.0
2015-May-23 13:32N 38°08' E 013°22'0 0.0
2015-May-23 12:33N 38°08' E 013°22'0 0.0
2015-May-23 11:33N 38°08' E 013°22'0 0.0
2015-May-23 10:33N 38°08' E 013°22'0 0.0
2015-May-23 09:33N 38°08' E 013°22'0 0.0
2015-May-23 08:33N 38°08' E 013°22'0 0.0
2015-May-23 07:33N 38°08' E 013°22'0 0.0
2015-May-23 06:33N 38°08' E 013°22'0 0.0
2015-May-23 05:33N 38°08' E 013°22'0 0.0
2015-May-23 04:33N 38°08' E 013°22'7 7.3
2015-May-23 03:34N 38°14' E 013°26'1818.2
2015-May-23 02:34N 38°32' E 013°32'1918.3
2015-May-23 01:31N 38°51' E 013°37'123 5.8
2015-May-22 04:25N 40°50' E 014°16'3 3.7
2015-May-22 03:33N 40°47' E 014°16'1818.0
2015-May-22 02:34N 40°31' E 014°07'1817.5
2015-May-22 01:32N 40°14' E 014°02'9817.9
2015-May-21 20:04N 38°38' E 013°33'918.2
2015-May-21 19:33N 38°29' E 013°29'1818.0
2015-May-21 18:34N 38°12' E 013°26'5 4.8
2015-May-21 17:31N 38°08' E 013°22'0 0.0
2015-May-21 16:31N 38°08' E 013°22'0 0.0
2015-May-21 15:16N 38°08' E 013°22'0 0.0
2015-May-21 14:31N 38°08' E 013°22'0 0.0
2015-May-21 13:31N 38°08' E 013°22'0 0.0
2015-May-21 12:31N 38°08' E 013°22'0 0.0
2015-May-21 11:33N 38°08' E 013°22'0 0.0
2015-May-21 10:33N 38°08' E 013°22'0 0.0
2015-May-21 09:33N 38°08' E 013°22'0 0.0
2015-May-21 08:33N 38°08' E 013°22'0 0.0
2015-May-21 07:33N 38°08' E 013°22'0 0.0
2015-May-21 06:33N 38°08' E 013°22'0 0.0
2015-May-21 05:33N 38°08' E 013°22'0 0.0
2015-May-21 04:33N 38°08' E 013°22'5 4.9
2015-May-21 03:33N 38°12' E 013°25'1716.6
2015-May-21 02:33N 38°28' E 013°31'1817.6
2015-May-21 01:34N 38°45' E 013°36'1817.7
2015-May-21 00:33N 39°03' E 013°40'1817.9
2015-May-20 23:33N 39°20' E 013°45'1818.2
2015-May-20 22:33N 39°38' E 013°51'1818.4
2015-May-20 21:33N 39°56' E 013°56'1919.0
2015-May-20 20:33N 40°14' E 014°02'1918.6
2015-May-20 19:33N 40°32' E 014°07'1717.4
2015-May-20 18:33N 40°48' E 014°16'2 1.8
2015-May-20 17:24N 40°50' E 014°16'0 0.0
2015-May-20 15:18N 40°50' E 014°16'0 0.0
2015-May-20 14:33N 40°50' E 014°16'0 0.0
2015-May-20 13:30N 40°50' E 014°16'0 0.0
2015-May-20 12:30N 40°50' E 014°16'0 0.0
2015-May-20 11:21N 40°50' E 014°16'0 0.0
2015-May-20 06:32N 40°50' E 014°16'0 0.0
2015-May-20 04:29N 40°50' E 014°16'  

Dump ship's entire track history